createdAt,value
2019-05-26T00:01:14.544Z,12.30
2019-05-26T00:03:48.380Z,12.29
2019-05-26T00:06:22.099Z,12.21
2019-05-26T00:08:55.778Z,12.20
2019-05-26T00:11:29.440Z,12.11
2019-05-26T00:14:04.721Z,12.09
2019-05-26T00:16:38.907Z,12.04
2019-05-26T00:19:13.041Z,11.99
2019-05-26T00:21:46.466Z,11.94
2019-05-26T00:24:20.042Z,11.95
2019-05-26T00:26:53.488Z,11.94
2019-05-26T00:29:27.231Z,11.80
2019-05-26T00:32:00.984Z,12.01
2019-05-26T00:34:35.147Z,12.05
2019-05-26T00:37:08.892Z,12.03
2019-05-26T00:39:42.565Z,12.00
2019-05-26T00:42:16.242Z,12.01
2019-05-26T00:44:51.113Z,11.95
2019-05-26T00:47:24.824Z,11.88
2019-05-26T00:49:58.585Z,11.94
2019-05-26T00:52:33.483Z,11.98
2019-05-26T00:55:07.562Z,11.92
2019-05-26T00:57:41.241Z,12.00
2019-05-26T01:00:15.537Z,12.06
2019-05-26T01:02:49.721Z,12.04
2019-05-26T01:05:23.539Z,12.03
2019-05-26T01:08:06.348Z,12.03
2019-05-26T01:10:33.979Z,12.04
2019-05-26T01:13:09.828Z,12.03
2019-05-26T01:15:44.905Z,12.03
2019-05-26T01:18:19.962Z,12.02
2019-05-26T01:20:53.772Z,12.00
2019-05-26T01:23:27.468Z,11.98
2019-05-26T01:26:01.210Z,11.96
2019-05-26T01:28:34.824Z,11.97
2019-05-26T01:31:10.127Z,11.99
2019-05-26T01:33:44.150Z,12.02
2019-05-26T01:36:19.115Z,12.07
2019-05-26T01:38:55.342Z,12.10
2019-05-26T01:41:29.040Z,12.08
2019-05-26T01:44:03.056Z,12.10
2019-05-26T01:46:37.866Z,12.11
2019-05-26T01:49:11.321Z,12.15
2019-05-26T01:51:45.118Z,12.20
2019-05-26T01:54:18.685Z,12.24
2019-05-26T01:56:52.502Z,12.26
2019-05-26T01:59:26.112Z,12.28
2019-05-26T02:02:00.390Z,12.27
2019-05-26T02:04:34.074Z,12.26
2019-05-26T02:07:07.734Z,12.24
2019-05-26T02:09:41.215Z,12.23
2019-05-26T02:12:14.697Z,12.22
2019-05-26T02:14:50.204Z,12.21
2019-05-26T02:17:23.774Z,12.24
2019-05-26T02:19:57.301Z,12.24
2019-05-26T02:22:30.823Z,12.24
2019-05-26T02:25:04.471Z,12.28
2019-05-26T02:27:37.953Z,12.26
2019-05-26T02:30:12.028Z,12.26
2019-05-26T02:32:45.551Z,12.20
2019-05-26T02:35:19.417Z,12.19
2019-05-26T02:37:52.909Z,12.22
2019-05-26T02:40:28.028Z,12.20
2019-05-26T02:43:01.530Z,12.20
2019-05-26T02:45:35.156Z,12.21
2019-05-26T02:48:08.937Z,12.23
2019-05-26T02:50:42.576Z,12.25
2019-05-26T02:53:16.246Z,12.27
2019-05-26T02:55:50.009Z,12.29
2019-05-26T02:58:24.056Z,12.28
2019-05-26T03:00:57.675Z,12.32
2019-05-26T03:03:31.459Z,12.33
2019-05-26T03:06:06.683Z,12.33
2019-05-26T03:08:41.246Z,12.33
2019-05-26T03:11:16.150Z,12.35
2019-05-26T03:13:51.649Z,12.34
2019-05-26T03:16:25.151Z,12.28
2019-05-26T03:19:01.067Z,12.29
2019-05-26T03:21:36.980Z,12.30
2019-05-26T03:24:10.908Z,12.32
2019-05-26T03:26:44.503Z,12.30
2019-05-26T03:29:18.095Z,12.31
2019-05-26T03:31:51.645Z,12.32
2019-05-26T03:34:25.455Z,12.31
2019-05-26T03:36:59.189Z,12.30
2019-05-26T03:39:44.192Z,12.27
2019-05-26T03:42:08.113Z,12.33
2019-05-26T03:44:41.659Z,12.35
2019-05-26T03:47:16.836Z,12.35
2019-05-26T03:49:50.407Z,12.40
2019-05-26T03:52:24.329Z,12.42
2019-05-26T03:54:57.840Z,12.44
2019-05-26T03:57:31.331Z,12.45
2019-05-26T04:00:05.565Z,12.47
2019-05-26T04:02:39.193Z,12.51
2019-05-26T04:05:12.855Z,12.54
2019-05-26T04:07:46.362Z,12.56
2019-05-26T04:10:19.944Z,12.55
2019-05-26T04:12:53.560Z,12.57
2019-05-26T04:15:27.374Z,12.60
2019-05-26T04:18:01.159Z,12.60
2019-05-26T04:20:34.651Z,12.65
2019-05-26T04:23:08.200Z,12.67
2019-05-26T04:25:42.764Z,12.70
2019-05-26T04:28:16.226Z,12.72
2019-05-26T04:30:49.654Z,12.77
2019-05-26T04:33:23.048Z,12.78
2019-05-26T04:35:56.547Z,12.77
2019-05-26T04:38:29.957Z,12.79
2019-05-26T04:41:03.399Z,12.82
2019-05-26T04:43:36.855Z,12.86
2019-05-26T04:46:10.328Z,12.87
2019-05-26T04:48:43.862Z,12.89
2019-05-26T04:51:18.459Z,12.91
2019-05-26T04:53:52.627Z,12.95
2019-05-26T04:56:26.236Z,12.97
2019-05-26T04:58:59.713Z,13.05
2019-05-26T05:01:33.296Z,13.10
2019-05-26T05:04:06.929Z,13.19
2019-05-26T05:06:42.795Z,13.27
2019-05-26T05:09:16.506Z,13.33
2019-05-26T05:11:50.436Z,13.40
2019-05-26T05:14:25.183Z,13.44
2019-05-26T05:16:58.831Z,13.53
2019-05-26T05:19:32.413Z,13.54
2019-05-26T05:22:06.135Z,13.60
2019-05-26T05:24:39.727Z,13.64
2019-05-26T05:27:13.347Z,13.71
2019-05-26T05:29:47.388Z,13.83
2019-05-26T05:32:20.997Z,13.91
2019-05-26T05:34:54.638Z,13.98
2019-05-26T05:37:28.864Z,14.01
2019-05-26T05:40:04.220Z,14.04
2019-05-26T05:42:37.702Z,14.07
2019-05-26T05:45:12.819Z,14.00
2019-05-26T05:47:48.459Z,14.05
2019-05-26T05:50:25.422Z,14.14
2019-05-26T05:52:58.941Z,14.24
2019-05-26T05:55:32.476Z,14.31
2019-05-26T05:58:06.016Z,14.31
2019-05-26T06:00:39.509Z,14.32
2019-05-26T06:03:12.961Z,14.38
2019-05-26T06:05:46.602Z,14.46
2019-05-26T06:08:20.393Z,14.50
2019-05-26T06:10:54.144Z,14.53
2019-05-26T06:13:28.909Z,14.57
2019-05-26T06:16:02.625Z,14.59
2019-05-26T06:18:36.305Z,14.63
2019-05-26T06:21:10.106Z,14.72
2019-05-26T06:23:43.794Z,14.74
2019-05-26T06:26:17.546Z,14.82
2019-05-26T06:28:52.519Z,14.94
2019-05-26T06:31:26.884Z,15.04
2019-05-26T06:34:01.587Z,15.08
2019-05-26T06:36:36.362Z,15.12
2019-05-26T06:39:10.878Z,15.23
2019-05-26T06:41:45.133Z,15.52
2019-05-26T06:44:18.983Z,15.86
2019-05-26T06:46:55.555Z,15.78
2019-05-26T06:49:29.347Z,15.99
2019-05-26T06:52:03.103Z,16.26
2019-05-26T06:54:37.060Z,16.53
2019-05-26T06:57:12.288Z,16.81
2019-05-26T06:59:46.450Z,16.95
2019-05-26T07:02:20.340Z,17.15
2019-05-26T07:04:54.172Z,17.26
2019-05-26T07:07:28.060Z,17.32
2019-05-26T07:10:01.897Z,17.45
2019-05-26T07:12:38.881Z,17.63
2019-05-26T07:15:13.706Z,17.72
2019-05-26T07:17:47.471Z,17.81
2019-05-26T07:20:25.096Z,17.95
2019-05-26T07:22:58.634Z,18.03
2019-05-26T07:25:32.416Z,18.13
2019-05-26T07:28:07.006Z,18.24
2019-05-26T07:30:44.029Z,18.21
2019-05-26T07:33:17.872Z,18.23
2019-05-26T07:35:51.443Z,18.36
2019-05-26T07:38:25.273Z,18.34
2019-05-26T07:40:59.052Z,18.48
2019-05-26T07:43:33.466Z,18.56
2019-05-26T07:46:07.274Z,18.56
2019-05-26T07:48:41.058Z,18.67
2019-05-26T07:51:16.455Z,18.76
2019-05-26T07:53:55.854Z,18.84
2019-05-26T07:56:27.488Z,19.00
2019-05-26T07:59:00.845Z,18.97
2019-05-26T08:01:36.186Z,19.11
2019-05-26T08:04:09.387Z,19.21
2019-05-26T08:06:43.000Z,19.35
2019-05-26T08:09:17.279Z,19.51
2019-05-26T08:11:50.946Z,19.58
2019-05-26T08:14:24.257Z,19.47
2019-05-26T08:16:57.500Z,19.67
2019-05-26T08:19:30.917Z,19.52
2019-05-26T08:22:04.158Z,19.55
2019-05-26T08:24:37.514Z,19.59
2019-05-26T08:27:10.827Z,19.75
2019-05-26T08:29:44.056Z,19.90
2019-05-26T08:32:17.323Z,20.09
2019-05-26T08:34:50.637Z,20.04
2019-05-26T08:37:23.893Z,19.98
2019-05-26T08:39:59.588Z,20.19
2019-05-26T08:42:44.107Z,20.20
2019-05-26T08:45:08.290Z,20.21
2019-05-26T08:47:41.434Z,20.27
2019-05-26T08:50:15.035Z,20.22
2019-05-26T08:52:48.172Z,20.33
2019-05-26T08:55:23.188Z,20.33
2019-05-26T08:57:56.426Z,20.44
2019-05-26T09:00:29.736Z,20.49
2019-05-26T09:03:02.999Z,20.55
2019-05-26T09:05:36.246Z,20.63
2019-05-26T09:08:09.481Z,20.78
2019-05-26T09:10:42.914Z,20.83
2019-05-26T09:13:16.319Z,20.81
2019-05-26T09:15:49.553Z,20.84
2019-05-26T09:18:22.901Z,20.78
2019-05-26T09:20:56.146Z,20.78
2019-05-26T09:23:29.355Z,20.85
2019-05-26T09:26:02.665Z,20.80
2019-05-26T09:28:35.974Z,20.71
2019-05-26T09:31:09.464Z,20.80
2019-05-26T09:33:42.573Z,20.93
2019-05-26T09:36:15.784Z,21.00
2019-05-26T09:38:49.033Z,20.98
2019-05-26T09:41:22.668Z,21.24
2019-05-26T09:43:56.542Z,21.21
2019-05-26T09:46:30.048Z,21.34
2019-05-26T09:49:03.973Z,21.29
2019-05-26T09:51:40.242Z,21.41
2019-05-26T09:54:14.028Z,21.48
2019-05-26T09:56:47.901Z,21.55
2019-05-26T09:59:21.664Z,21.54
2019-05-26T10:01:54.955Z,21.62
2019-05-26T10:04:28.332Z,21.73
2019-05-26T10:07:01.607Z,21.71
2019-05-26T10:09:35.108Z,21.71
2019-05-26T10:12:08.578Z,21.24
2019-05-26T10:14:42.071Z,21.52
2019-05-26T10:17:15.507Z,21.62
2019-05-26T10:19:49.054Z,21.68
2019-05-26T10:22:22.394Z,21.89
2019-05-26T10:24:55.706Z,21.95
2019-05-26T10:27:28.992Z,21.90
2019-05-26T10:30:02.325Z,21.86
2019-05-26T10:32:35.642Z,22.11
2019-05-26T10:35:09.191Z,22.17
2019-05-26T10:37:42.330Z,22.00
2019-05-26T10:40:16.198Z,22.20
2019-05-26T10:42:49.435Z,22.21
2019-05-26T10:45:23.777Z,22.37
2019-05-26T10:47:57.274Z,22.56
2019-05-26T10:50:30.499Z,22.65
2019-05-26T10:53:04.116Z,22.79
2019-05-26T10:55:38.378Z,22.75
2019-05-26T10:58:11.440Z,22.76
2019-05-26T11:00:44.684Z,22.74
2019-05-26T11:03:17.896Z,22.86
2019-05-26T11:05:51.149Z,22.96
2019-05-26T11:08:24.788Z,22.93
2019-05-26T11:10:58.225Z,23.06
2019-05-26T11:13:31.456Z,23.10
2019-05-26T11:16:04.567Z,23.06
2019-05-26T11:18:37.857Z,23.12
2019-05-26T11:21:12.534Z,23.12
2019-05-26T11:23:46.334Z,22.74
2019-05-26T11:26:19.636Z,22.74
2019-05-26T11:28:53.102Z,22.91
2019-05-26T11:31:26.817Z,22.90
2019-05-26T11:34:01.462Z,22.88
2019-05-26T11:36:34.756Z,22.90
2019-05-26T11:39:09.486Z,22.79
2019-05-26T11:41:42.871Z,22.96
2019-05-26T11:44:18.226Z,23.12
2019-05-26T11:46:51.214Z,23.09
2019-05-26T11:49:24.544Z,22.94
2019-05-26T11:51:57.896Z,22.82
2019-05-26T11:54:34.292Z,22.90
2019-05-26T11:57:06.258Z,22.96
2019-05-26T11:59:39.509Z,22.85
2019-05-26T12:02:12.780Z,22.87
2019-05-26T12:04:46.024Z,23.00
2019-05-26T12:07:19.942Z,23.07
2019-05-26T12:09:53.202Z,23.19
2019-05-26T12:12:26.565Z,23.36
2019-05-26T12:14:59.802Z,23.33
2019-05-26T12:17:33.052Z,23.46
2019-05-26T12:20:06.957Z,23.57
2019-05-26T12:22:40.764Z,23.37
2019-05-26T12:25:14.196Z,23.40
2019-05-26T12:27:47.561Z,23.52
2019-05-26T12:30:21.308Z,23.42
2019-05-26T12:32:54.696Z,23.29
2019-05-26T12:35:43.881Z,23.23
2019-05-26T12:38:20.498Z,23.14
2019-05-26T12:40:54.086Z,23.19
2019-05-26T12:43:27.971Z,23.35
2019-05-26T12:46:01.401Z,23.46
2019-05-26T12:48:34.785Z,23.47
2019-05-26T12:51:08.161Z,23.27
2019-05-26T12:53:41.439Z,23.33
2019-05-26T12:56:14.938Z,23.53
2019-05-26T12:58:48.365Z,23.37
2019-05-26T13:01:21.742Z,23.31
2019-05-26T13:03:55.651Z,22.99
2019-05-26T13:06:30.451Z,23.10
2019-05-26T13:09:03.951Z,23.13
2019-05-26T13:11:37.332Z,22.97
2019-05-26T13:14:10.814Z,23.06
2019-05-26T13:16:44.262Z,23.03
2019-05-26T13:19:17.690Z,22.91
2019-05-26T13:21:51.146Z,23.05
2019-05-26T13:24:24.392Z,23.13
2019-05-26T13:26:57.595Z,23.10
2019-05-26T13:29:32.170Z,23.18
2019-05-26T13:32:05.390Z,23.35
2019-05-26T13:34:38.872Z,23.29
2019-05-26T13:37:12.258Z,23.30
2019-05-26T13:39:45.757Z,23.31
2019-05-26T13:42:19.198Z,23.27
2019-05-26T13:44:52.734Z,23.28
2019-05-26T13:47:26.702Z,23.32
2019-05-26T13:50:00.010Z,23.31
2019-05-26T13:52:33.399Z,23.32
2019-05-26T13:55:07.587Z,23.40
2019-05-26T13:57:40.925Z,23.13
2019-05-26T14:00:16.487Z,23.21
2019-05-26T14:02:50.466Z,23.24
2019-05-26T14:05:24.115Z,23.30
2019-05-26T14:07:57.329Z,23.31
2019-05-26T14:10:36.618Z,23.36
2019-05-26T14:13:10.812Z,23.41
2019-05-26T14:15:45.052Z,23.30
2019-05-26T14:18:18.369Z,23.20
2019-05-26T14:20:51.679Z,23.18
2019-05-26T14:23:24.941Z,23.19
2019-05-26T14:25:58.308Z,23.16
2019-05-26T14:28:31.765Z,23.21
2019-05-26T14:31:06.124Z,23.29
2019-05-26T14:33:39.507Z,23.30
2019-05-26T14:36:12.826Z,23.32
2019-05-26T14:38:46.019Z,23.30
2019-05-26T14:41:19.332Z,23.19
2019-05-26T14:43:52.619Z,23.04
2019-05-26T14:46:25.849Z,22.96
2019-05-26T14:48:59.298Z,22.93
2019-05-26T14:51:32.510Z,22.85
2019-05-26T14:54:05.782Z,22.70
2019-05-26T14:56:40.212Z,22.62
2019-05-26T14:59:13.616Z,22.55
2019-05-26T15:01:46.965Z,22.52
2019-05-26T15:04:20.442Z,22.49
2019-05-26T15:06:53.527Z,22.53
2019-05-26T15:09:26.670Z,22.59
2019-05-26T15:12:01.012Z,22.66
2019-05-26T15:14:34.190Z,22.71
2019-05-26T15:17:07.371Z,22.73
2019-05-26T15:19:40.598Z,22.71
2019-05-26T15:22:13.752Z,22.74
2019-05-26T15:24:46.964Z,22.75
2019-05-26T15:27:20.208Z,22.66
2019-05-26T15:29:53.493Z,22.60
2019-05-26T15:32:26.783Z,22.57
2019-05-26T15:35:00.099Z,22.61
2019-05-26T15:37:33.363Z,22.60
2019-05-26T15:40:07.155Z,22.59
2019-05-26T15:42:40.523Z,22.64
2019-05-26T15:45:14.022Z,22.70
2019-05-26T15:47:47.288Z,22.69
2019-05-26T15:50:20.723Z,22.72
2019-05-26T15:52:54.048Z,22.75
2019-05-26T15:55:27.321Z,22.67
2019-05-26T15:58:00.686Z,22.63
2019-05-26T16:00:33.918Z,22.53
2019-05-26T16:03:07.276Z,22.46
2019-05-26T16:05:40.608Z,22.44
2019-05-26T16:08:13.897Z,22.41
2019-05-26T16:10:47.229Z,22.36
2019-05-26T16:13:20.493Z,22.34
2019-05-26T16:15:53.776Z,22.31
2019-05-26T16:18:27.052Z,22.30
2019-05-26T16:21:03.309Z,22.30
2019-05-26T16:23:35.018Z,22.27
2019-05-26T16:26:09.370Z,22.27
2019-05-26T16:28:42.623Z,22.29
2019-05-26T16:31:16.093Z,22.28
2019-05-26T16:33:49.345Z,22.28
2019-05-26T16:36:24.178Z,22.28
2019-05-26T16:38:57.595Z,22.25
2019-05-26T16:41:32.558Z,22.26
2019-05-26T16:44:05.890Z,22.25
2019-05-26T16:46:39.418Z,22.22
2019-05-26T16:49:12.590Z,22.20
2019-05-26T16:51:45.971Z,22.20
2019-05-26T16:54:19.233Z,22.18
2019-05-26T16:56:52.533Z,22.19
2019-05-26T16:59:25.724Z,22.15
2019-05-26T17:01:58.901Z,22.13
2019-05-26T17:04:33.184Z,22.07
2019-05-26T17:07:06.479Z,22.07
2019-05-26T17:09:39.732Z,22.01
2019-05-26T17:12:12.974Z,22.01
2019-05-26T17:14:46.318Z,21.99
2019-05-26T17:17:19.554Z,21.96
2019-05-26T17:19:53.222Z,21.98
2019-05-26T17:22:26.548Z,21.98
2019-05-26T17:25:00.149Z,21.99
2019-05-26T17:27:33.393Z,21.94
2019-05-26T17:30:06.993Z,21.92
2019-05-26T17:32:40.245Z,21.91
2019-05-26T17:35:13.695Z,21.88
2019-05-26T17:37:46.928Z,21.79
2019-05-26T17:40:22.982Z,21.72
2019-05-26T17:42:56.224Z,21.68
2019-05-26T17:45:29.554Z,21.64
2019-05-26T17:48:02.646Z,21.58
2019-05-26T17:50:35.973Z,21.56
2019-05-26T17:53:09.217Z,21.51
2019-05-26T17:55:42.551Z,21.46
2019-05-26T17:58:15.841Z,21.44
2019-05-26T18:00:49.178Z,21.41
2019-05-26T18:03:22.311Z,21.35
2019-05-26T18:05:55.584Z,21.32
2019-05-26T18:08:31.330Z,21.29
2019-05-26T18:11:04.584Z,21.23
2019-05-26T18:13:37.906Z,21.20
2019-05-26T18:16:11.138Z,21.16
2019-05-26T18:18:44.313Z,21.11
2019-05-26T18:21:17.534Z,21.07
2019-05-26T18:23:50.831Z,20.99
2019-05-26T18:26:24.013Z,20.95
2019-05-26T18:28:57.220Z,20.94
2019-05-26T18:31:30.482Z,20.77
2019-05-26T18:34:03.776Z,20.86
2019-05-26T18:36:37.015Z,20.82
2019-05-26T18:39:11.903Z,20.80
2019-05-26T18:41:45.260Z,20.76
2019-05-26T18:44:18.496Z,20.68
2019-05-26T18:46:53.676Z,20.67
2019-05-26T18:49:26.880Z,20.63
2019-05-26T18:52:00.963Z,20.61
2019-05-26T18:54:34.510Z,20.61
2019-05-26T18:57:07.693Z,20.59
2019-05-26T18:59:41.020Z,20.59
2019-05-26T19:02:14.250Z,20.57
2019-05-26T19:04:48.026Z,20.55
2019-05-26T19:07:32.669Z,20.53
2019-05-26T19:10:09.478Z,20.49
2019-05-26T19:12:42.804Z,20.46
2019-05-26T19:15:16.734Z,20.42
2019-05-26T19:17:49.917Z,20.41
2019-05-26T19:20:23.711Z,20.41
2019-05-26T19:23:04.753Z,20.36
2019-05-26T19:25:46.444Z,20.33
2019-05-26T19:28:22.802Z,20.30
2019-05-26T19:31:00.198Z,20.25
2019-05-26T19:33:36.995Z,20.22
2019-05-26T19:36:10.900Z,20.21
2019-05-26T19:38:45.460Z,20.17
2019-05-26T19:41:18.837Z,20.09
2019-05-26T19:43:52.079Z,20.04
2019-05-26T19:46:25.365Z,19.99
2019-05-26T19:48:58.602Z,19.96
2019-05-26T19:51:32.822Z,19.94
2019-05-26T19:54:07.192Z,19.90
2019-05-26T19:56:42.558Z,19.83
2019-05-26T19:59:19.169Z,19.77
2019-05-26T20:01:52.500Z,19.74
2019-05-26T20:04:25.860Z,19.70
2019-05-26T20:06:59.192Z,19.67
2019-05-26T20:09:32.902Z,19.65
2019-05-26T20:12:06.674Z,19.62
2019-05-26T20:14:40.399Z,19.59
2019-05-26T20:17:13.712Z,19.58
2019-05-26T20:19:46.888Z,19.54
2019-05-26T20:22:20.032Z,19.53
2019-05-26T20:24:54.186Z,19.51
2019-05-26T20:27:27.779Z,19.46
2019-05-26T20:30:01.034Z,19.44
2019-05-26T20:32:34.240Z,19.39
2019-05-26T20:35:08.024Z,19.36
2019-05-26T20:37:41.294Z,19.35
2019-05-26T20:40:14.934Z,19.32
2019-05-26T20:42:48.721Z,19.28
2019-05-26T20:45:22.896Z,19.25
2019-05-26T20:48:01.891Z,19.23
2019-05-26T20:50:36.047Z,19.19
2019-05-26T20:53:24.635Z,19.18
2019-05-26T20:55:58.769Z,19.18
2019-05-26T20:58:32.172Z,19.14
2019-05-26T21:01:05.811Z,19.13
2019-05-26T21:03:39.466Z,19.12
2019-05-26T21:06:12.768Z,19.08
2019-05-26T21:08:46.141Z,19.04
2019-05-26T21:11:19.512Z,18.99
2019-05-26T21:13:53.094Z,18.97
2019-05-26T21:16:26.809Z,18.96
2019-05-26T21:19:01.266Z,18.91
2019-05-26T21:21:34.654Z,18.83
2019-05-26T21:24:08.032Z,18.76
2019-05-26T21:26:41.462Z,18.68
2019-05-26T21:29:15.630Z,18.59
2019-05-26T21:31:57.411Z,18.56
2019-05-26T21:34:30.884Z,18.54
2019-05-26T21:37:04.956Z,18.48
2019-05-26T21:39:38.357Z,18.44
2019-05-26T21:42:15.799Z,18.39
2019-05-26T21:44:50.366Z,18.33
2019-05-26T21:47:23.621Z,18.29
2019-05-26T21:49:56.939Z,18.26
2019-05-26T21:52:32.186Z,18.21
2019-05-26T21:55:21.624Z,18.19
2019-05-26T21:57:55.262Z,18.13
2019-05-26T22:00:39.330Z,18.07
2019-05-26T22:03:12.950Z,17.98
2019-05-26T22:05:46.384Z,17.96
2019-05-26T22:08:19.823Z,17.91
2019-05-26T22:10:53.089Z,17.88
2019-05-26T22:13:26.425Z,17.83
2019-05-26T22:15:59.761Z,17.82
2019-05-26T22:18:33.161Z,17.78
2019-05-26T22:21:06.400Z,17.73
2019-05-26T22:23:39.660Z,17.72
2019-05-26T22:26:12.901Z,17.67
2019-05-26T22:28:46.628Z,17.67
2019-05-26T22:31:19.890Z,17.61
2019-05-26T22:33:53.156Z,17.55
2019-05-26T22:36:26.494Z,17.48
2019-05-26T22:38:59.785Z,17.46
2019-05-26T22:41:33.048Z,17.44
2019-05-26T22:44:06.423Z,17.41
2019-05-26T22:46:39.755Z,17.37
2019-05-26T22:49:13.110Z,17.36
2019-05-26T22:51:46.451Z,17.34
2019-05-26T22:54:19.710Z,17.30
2019-05-26T22:56:52.954Z,17.27
2019-05-26T22:59:26.324Z,17.24
2019-05-26T23:01:59.638Z,17.21
2019-05-26T23:04:33.075Z,17.20
2019-05-26T23:07:06.143Z,17.18
2019-05-26T23:09:39.306Z,17.15
2019-05-26T23:12:13.881Z,17.12
2019-05-26T23:14:48.430Z,17.08
2019-05-26T23:17:23.139Z,17.07
2019-05-26T23:19:57.535Z,17.03
2019-05-26T23:22:32.235Z,17.01
2019-05-26T23:25:07.522Z,17.00
2019-05-26T23:27:42.154Z,16.99
2019-05-26T23:30:16.875Z,16.97
2019-05-26T23:32:51.870Z,16.94
2019-05-26T23:35:26.553Z,16.91
2019-05-26T23:38:01.244Z,16.88
2019-05-26T23:40:35.071Z,16.85
2019-05-26T23:43:10.143Z,16.80
2019-05-26T23:45:43.479Z,16.75
2019-05-26T23:48:16.802Z,16.72
2019-05-26T23:50:49.980Z,16.64
2019-05-26T23:53:23.061Z,16.57
2019-05-26T23:55:56.418Z,16.53
2019-05-26T23:58:29.723Z,16.47
